KNQX/NQX METAR and TAF weather

Enter ICAO airport designator
Station Type Date Time Source
KNQX METAR 2019/10/18 10:53 UTC NOAA

KNQX 181053Z 15008KT 10SM FEW025 28/23 A2989 RMK AO2 SLP122 T02830233


Station Type Date Time Source
KNQX Decoded METAR 2019/10/18 10:53 UTC NOAA

KEY WEST NAVAL AIR STATION, FL, United States (KNQX) 24-35N 81-41W 6M
Oct 18, 2019 - 06:53 AM EDT / 2019.10.18 1053 UTC
Wind: from the SSE (150 degrees) at 9 MPH (8 KT):0
Visibility: 10 mile(s):0
Sky conditions: mostly clear
Temperature: 82.9 F (28.3 C)
Dew Point: 73.9 F (23.3 C)
Relative Humidity: 74%
Pressure (altimeter): 29.89 in. Hg (1012 hPa)
ob: KNQX 181053Z 15008KT 10SM FEW025 28/23 A2989 RMK AO2 SLP122 T02830233
cycle: 11

Station Type Date Time Source
KNQX TAF 2019/10/18 07:09 UTC NOAA

TAF KNQX 1807/1907 VRB06KT 9999 FEW025 FEW250 QNH2985INS
FM181500 15010KT 9999 SCT030 BKN250 QNH2990INS
FM190300 17015G20KT 9999 SCT030 BKN250 QNH2985INS AUTOMATED SENSOR METWATCH 1807 TIL 1810 T28/1811Z T32/1819Z FN00218

Example: see airport list